Time;durP1;ratioP1;P1;durP2;ratioP2;P2;SDS_P1;SDS_P2;PMS_P1;PMS_P2;Temp;Humidity;BMP_temperature;BMP_pressure;BME280_temperature;BME280_humidity;BME280_pressure;Samples;Min_cycle;Max_cycle;Signal;HPM_P1;HPM_P2
2021/11/02 06:00:32;;;;;;;58.55;34.75;;;;;;;8.20;76.24;98533.22;5003846;28;106100;-71
2021/11/02 06:28:05;;;;;;;51.20;30.33;;;;;;;8.81;76.87;98530.66;5002697;28;106374;-70
2021/11/02 06:33:40;;;;;;;51.97;31.00;;;;;;;8.84;76.73;98526.78;5004180;28;106166;-70
2021/11/02 06:46:57;;;;;;;47.67;29.98;;;;;;;8.97;77.72;98541.97;5001834;28;106510;-71
2021/11/02 08:45:07;;;;;;;6.40;4.90;;;;;;;8.72;79.27;98595.59;4989551;28;106021;-68
2021/11/02 08:47:38;;;;;;;6.68;4.60;;;;;;;8.74;78.99;98598.03;4983827;28;106933;-68
2021/11/02 08:50:06;;;;;;;6.45;4.43;;;;;;;8.75;79.27;98591.72;4987259;28;106527;-68
2021/11/02 08:52:33;;;;;;;6.18;4.50;;;;;;;8.75;78.67;98589.88;4988658;28;106468;-67
2021/11/02 08:54:59;;;;;;;6.35;4.10;;;;;;;8.73;78.52;98599.06;4987562;28;106252;-68
2021/11/02 08:57:25;;;;;;;5.97;4.57;;;;;;;8.69;78.90;98600.47;4987898;28;106093;-67
2021/11/02 08:59:52;;;;;;;7.82;5.07;;;;;;;8.67;79.33;98598.00;4987316;28;106452;-69
2021/11/02 09:02:25;;;;;;;6.40;4.82;;;;;;;8.68;79.12;98596.16;4985068;28;106102;-67
2021/11/02 09:04:56;;;;;;;7.28;4.63;;;;;;;8.67;78.74;98605.16;4987929;28;106044;-67
2021/11/02 09:07:27;;;;;;;5.88;4.03;;;;;;;8.57;78.89;98611.66;4987482;28;106055;-68
2021/11/02 09:09:53;;;;;;;;;;;;;;;8.53;79.04;98614.88;4987462;28;106372;-67
2021/11/02 09:12:19;;;;;;;7.35;4.60;;;;;;;8.51;78.99;98603.66;4987653;28;106032;-68
2021/11/02 09:14:48;;;;;;;6.70;4.82;;;;;;;8.53;79.57;98606.91;4985923;28;106329;-69
2021/11/02 09:17:15;;;;;;;7.50;4.47;;;;;;;8.57;79.13;98618.78;4985681;28;105986;-68
2021/11/02 09:19:41;;;;;;;7.88;5.35;;;;;;;8.55;79.28;98616.31;4986786;28;106861;-70
2021/11/02 09:22:10;;;;;;;7.45;4.68;;;;;;;8.57;79.47;98618.78;4987262;28;106023;-68
2021/11/02 09:24:41;;;;;;;9.20;5.23;;;;;;;8.61;79.28;98612.06;4986951;28;106272;-69
2021/11/02 09:27:08;;;;;;;7.35;4.85;;;;;;;8.65;78.99;98615.94;4983766;28;106154;-69
2021/11/02 09:29:35;;;;;;;7.05;4.68;;;;;;;8.69;79.11;98611.88;4986692;28;105919;-69
2021/11/02 09:32:01;;;;;;;6.88;4.57;;;;;;;8.72;79.42;98614.16;4981188;28;106081;-68
2021/11/02 09:34:28;;;;;;;7.15;4.43;;;;;;;8.72;79.43;98622.13;4987803;28;106205;-67
2021/11/02 09:37:17;;;;;;;6.47;4.72;;;;;;;8.71;79.40;98628.47;4987851;28;106076;-67
2021/11/02 09:39:48;;;;;;;6.43;4.70;;;;;;;8.72;79.01;98626.59;4984871;28;106438;-70
2021/11/02 09:42:39;;;;;;;7.72;5.18;;;;;;;8.72;78.90;98635.41;4978428;28;105879;-69
2021/11/02 09:45:26;;;;;;;6.65;4.03;;;;;;;8.67;78.69;98624.56;4995814;28;106240;-67
2021/11/02 09:48:20;;;;;;;6.00;4.38;;;;;;;8.64;79.43;98635.56;4997008;28;106578;-70
2021/11/02 09:51:10;;;;;;;5.70;3.90;;;;;;;8.59;79.00;98638.00;5004019;28;105866;-71
2021/11/02 09:54:04;;;;;;;4.83;3.67;;;;;;;8.52;79.20;98626.53;4992903;28;106508;-67
2021/11/02 09:56:47;;;;;;;6.13;4.25;;;;;;;8.50;79.44;98636.50;4988132;28;106007;-69
2021/11/02 09:59:39;;;;;;;7.53;4.50;;;;;;;8.49;79.47;98640.16;4983131;28;106372;-70
2021/11/02 10:02:34;;;;;;;6.03;3.55;;;;;;;8.44;78.95;98630.91;4977851;28;105821;-67
2021/11/02 10:05:15;;;;;;;6.22;3.67;;;;;;;8.44;79.48;98630.09;4969092;28;105893;-68
2021/11/02 10:08:17;;;;;;;6.32;4.05;;;;;;;8.40;78.86;98634.16;4951428;28;106232;-69
2021/11/02 10:11:00;;;;;;;5.10;3.83;;;;;;;8.38;79.34;98644.97;4968460;28;106836;-70
2021/11/02 10:13:50;;;;;;;7.00;3.85;;;;;;;8.36;79.20;98643.53;4968298;28;105892;-71
2021/11/02 10:16:41;;;;;;;5.53;3.95;;;;;;;8.34;79.50;98640.22;4967553;28;105982;-72
2021/11/02 10:19:16;;;;;;;6.22;3.83;;;;;;;8.36;79.53;98648.84;4967071;28;106126;-71
2021/11/02 10:21:44;;;;;;;9.43;6.13;;;;;;;8.34;79.10;98643.72;4966048;28;107030;-72
2021/11/02 10:25:00;;;;;;;5.95;3.40;;;;;;;8.37;79.04;98650.47;4966148;28;106025;-71
2021/11/02 10:27:31;;;;;;;5.03;3.42;;;;;;;8.36;79.62;98649.66;4963474;28;106147;-68
2021/11/02 10:30:30;;;;;;;6.30;3.88;;;;;;;8.41;79.30;98635.81;4966974;28;106003;-62
2021/11/02 10:33:03;;;;;;;5.05;3.13;;;;;;;8.50;79.74;98633.84;4965479;28;106251;-64
2021/11/02 10:35:55;;;;;;;4.65;3.30;;;;;;;8.53;79.36;98639.59;4966960;28;106236;-62
2021/11/02 10:38:41;;;;;;;4.82;3.33;;;;;;;8.58;79.78;98639.00;4968546;28;106113;-79
2021/11/02 10:41:12;;;;;;;4.55;2.97;;;;;;;8.59;79.08;98651.25;4969830;28;106191;-67
2021/11/02 10:43:57;;;;;;;5.18;2.85;;;;;;;8.53;79.33;98646.72;4969641;28;105991;-66
2021/11/02 10:46:31;;;;;;;4.82;2.40;;;;;;;8.50;79.29;98645.28;4983361;28;106350;-68
2021/11/02 10:49:25;;;;;;;4.45;2.08;;;;;;;8.49;78.90;98648.13;4991302;28;105775;-68
2021/11/02 10:52:07;;;;;;;2.90;1.70;;;;;;;8.52;79.44;98647.75;4990929;28;105988;-71
2021/11/02 10:54:48;;;;;;;3.40;1.90;;;;;;;8.54;79.64;98646.53;4990582;28;106675;-67
2021/11/02 10:57:22;;;;;;;3.80;2.05;;;;;;;8.65;79.84;98647.81;4990656;28;106040;-66
2021/11/02 10:59:48;;;;;;;3.33;2.20;;;;;;;8.77;79.26;98646.25;4990612;28;105946;-68
2021/11/02 11:02:34;;;;;;;3.67;2.08;;;;;;;8.88;79.62;98649.38;4988820;28;106194;-67
2021/11/02 11:05:02;;;;;;;3.53;2.35;;;;;;;9.00;79.26;98650.44;4989033;28;107156;-66
2021/11/02 11:07:41;;;;;;;4.00;2.63;;;;;;;9.06;79.44;98656.81;4990231;28;105992;-68
2021/11/02 11:10:14;;;;;;;5.05;2.75;;;;;;;9.11;79.27;98660.50;4991146;28;105936;-68
2021/11/02 11:12:53;;;;;;;4.75;2.92;;;;;;;9.19;78.79;98658.72;4990722;28;105994;-68
2021/11/02 11:15:19;;;;;;;3.97;2.30;;;;;;;9.26;79.03;98664.84;4988760;28;105993;-67
2021/11/02 11:18:06;;;;;;;4.38;2.55;;;;;;;9.28;78.67;98663.63;4990560;28;106060;-67
2021/11/02 11:20:37;;;;;;;4.07;2.92;;;;;;;9.34;78.92;98661.22;4991170;28;106039;-68
2021/11/02 11:23:10;;;;;;;3.90;2.40;;;;;;;9.41;78.96;98659.38;4990635;28;106175;-65
2021/11/02 11:25:54;;;;;;;3.70;2.58;;;;;;;9.44;78.51;98657.13;4989855;28;108468;-70
2021/11/02 11:28:21;;;;;;;4.05;3.03;;;;;;;9.54;78.95;98650.63;4988208;28;105987;-66
2021/11/02 11:30:48;;;;;;;4.30;2.50;;;;;;;9.65;78.93;98652.69;4989552;28;106031;-71
2021/11/02 11:33:16;;;;;;;3.40;2.50;;;;;;;9.74;78.59;98643.50;4988945;28;106389;-67
2021/11/02 11:35:42;;;;;;;3.05;2.08;;;;;;;9.82;78.03;98645.13;4988337;28;106718;-67
2021/11/02 11:38:11;;;;;;;3.63;2.47;;;;;;;9.83;77.73;98634.28;4987897;28;106115;-68
2021/11/02 11:40:38;;;;;;;4.50;2.47;;;;;;;9.81;77.45;98647.00;4988868;28;106225;-67
2021/11/02 11:43:06;;;;;;;3.28;2.25;;;;;;;9.81;77.74;98647.00;4988788;28;106187;-67
2021/11/02 11:45:34;;;;;;;4.65;3.08;;;;;;;9.81;77.11;98647.00;4987966;28;106174;-69
2021/11/02 11:48:12;;;;;;;3.15;2.20;;;;;;;9.80;77.58;98657.81;4988031;28;106093;-67
2021/11/02 11:50:40;;;;;;;3.67;2.22;;;;;;;9.78;77.29;98651.88;4988774;28;106330;-67
2021/11/02 11:53:07;;;;;;;3.03;2.00;;;;;;;9.80;77.51;98649.81;4987723;28;106737;-68
2021/11/02 11:55:36;;;;;;;2.90;1.88;;;;;;;9.85;77.05;98651.91;4988512;28;106583;-70
2021/11/02 11:58:06;;;;;;;1.92;1.30;;;;;;;9.83;76.91;98658.22;4987999;28;106059;-68
2021/11/02 12:00:33;;;;;;;2.70;1.55;;;;;;;9.89;76.83;98653.94;4988804;28;107556;-67
2021/11/02 12:03:09;;;;;;;2.53;1.30;;;;;;;9.88;76.41;98654.94;4988066;28;106205;-68
2021/11/02 12:05:42;;;;;;;4.35;1.83;;;;;;;9.89;76.15;98663.78;4988321;28;107176;-68
2021/11/02 12:08:29;;;;;;;3.00;1.27;;;;;;;9.92;76.15;98658.03;4988380;28;106468;-67
2021/11/02 12:11:01;;;;;;;2.78;1.50;;;;;;;9.94;76.18;98661.31;4988804;28;106446;-66
2021/11/02 12:13:28;;;;;;;3.60;1.70;;;;;;;9.95;75.91;98657.63;4987862;28;107249;-66
2021/11/02 12:16:13;;;;;;;2.42;1.60;;;;;;;9.94;76.06;98659.47;4987361;28;106326;-67
2021/11/02 12:18:41;;;;;;;2.63;1.80;;;;;;;9.97;75.79;98655.59;4987210;28;106150;-67
2021/11/02 12:21:14;;;;;;;2.90;1.80;;;;;;;10.15;76.25;98663.75;4987844;28;106083;-66
2021/11/02 12:23:40;;;;;;;3.55;1.92;;;;;;;10.39;75.94;98663.38;4987787;28;106013;-66
2021/11/02 12:26:08;;;;;;;3.33;2.10;;;;;;;10.78;76.04;98657.16;4987609;28;106741;-66
2021/11/02 12:28:42;;;;;;;4.85;1.88;;;;;;;11.21;75.76;98661.13;4973773;28;106008;-66
2021/11/02 12:31:12;;;;;;;3.15;2.10;;;;;;;11.67;74.91;98659.22;4972074;28;105880;-65
2021/11/02 12:33:44;;;;;;;3.25;2.30;;;;;;;12.16;74.48;98657.66;4971980;28;106213;-66
2021/11/02 12:36:16;;;;;;;4.72;2.42;;;;;;;12.71;74.14;98653.44;4969492;28;106612;-67
2021/11/02 12:38:42;;;;;;;5.03;2.15;;;;;;;13.19;73.07;98660.72;4969513;28;106256;-67
2021/11/02 12:41:22;;;;;;;3.25;1.40;;;;;;;13.49;72.22;98668.00;4974223;28;106242;-67
2021/11/02 12:44:09;;;;;;;5.30;3.50;;;;;;;14.17;70.99;98668.63;4969383;28;105960;-65
2021/11/02 12:46:39;;;;;;;2.72;1.70;;;;;;;14.38;68.37;98666.44;4987808;28;106107;-67
2021/11/02 12:49:06;;;;;;;4.43;1.70;;;;;;;14.03;68.23;98664.53;4988658;28;105933;-65
2021/11/02 12:51:36;;;;;;;3.00;1.60;;;;;;;14.30;68.62;98670.28;4989055;28;106064;-65
2021/11/02 12:54:03;;;;;;;;;;;;;;;14.85;68.86;98661.06;4988323;28;106317;-63
2021/11/02 12:56:29;;;;;;;4.40;1.75;;;;;;;14.71;67.70;98670.44;4988804;28;106072;-74
2021/11/02 12:59:06;;;;;;;3.00;1.80;;;;;;;14.50;66.94;98672.63;4988574;28;106102;-64
2021/11/02 13:01:37;;;;;;;2.38;1.55;;;;;;;14.18;66.35;98658.75;4989472;28;106031;-65
2021/11/02 13:04:07;;;;;;;6.50;1.60;;;;;;;13.94;66.57;98665.91;4988301;28;106284;-64
2021/11/02 13:06:52;;;;;;;2.53;1.60;;;;;;;13.59;66.26;98663.97;4988404;28;106871;-64
2021/11/02 13:09:20;;;;;;;3.25;1.52;;;;;;;13.24;65.90;98665.41;4988361;28;106443;-64
2021/11/02 13:11:47;;;;;;;2.97;1.73;;;;;;;13.00;65.90;98661.81;4989220;28;105864;-63
2021/11/02 13:14:14;;;;;;;2.33;1.33;;;;;;;14.12;67.38;98652.44;4986739;28;106603;-64
2021/11/02 13:16:59;;;;;;;5.75;3.28;;;;;;;16.06;66.64;98651.28;4987433;28;107293;-64
2021/11/02 13:19:36;;;;;;;3.47;1.90;;;;;;;17.16;63.93;98651.75;4984441;28;106353;-64
2021/11/02 13:22:25;;;;;;;3.00;2.22;;;;;;;19.14;63.28;98653.91;4985481;28;106094;-64
2021/11/02 13:25:32;;;;;;;2.53;1.60;;;;;;;22.78;60.60;98651.06;4987904;28;106035;-64
2021/11/02 13:27:57;;;;;;;1.30;1.08;;;;;;;23.05;51.97;98667.88;4954000;28;106893;-65
2021/11/02 13:30:43;;;;;;;3.28;1.40;;;;;;;22.11;50.04;98662.53;4988136;28;106094;-64
2021/11/02 13:33:18;;;;;;;4.22;1.63;;;;;;;22.52;50.48;98661.38;4987912;28;105905;-65
2021/11/02 13:35:48;;;;;;;3.05;1.20;;;;;;;22.14;49.23;98661.16;4987585;28;106993;-63
2021/11/02 13:38:39;;;;;;;2.45;1.48;;;;;;;21.47;50.36;98658.88;4987920;28;106351;-64
2021/11/02 13:41:19;;;;;;;3.33;1.35;;;;;;;23.46;49.38;98668.19;4988258;28;105852;-63
2021/11/02 13:43:49;;;;;;;3.95;1.40;;;;;;;26.00;48.25;98663.22;4988782;28;106069;-64
2021/11/02 13:46:18;;;;;;;1.85;1.30;;;;;;;27.88;42.68;98666.81;4988500;28;105885;-65
2021/11/02 13:48:44;;;;;;;2.65;1.23;;;;;;;26.37;40.98;98671.38;4987497;28;105965;-65
2021/11/02 13:51:12;;;;;;;1.45;0.90;;;;;;;24.59;40.64;98671.06;4987896;28;106264;-65
2021/11/02 13:53:38;;;;;;;2.10;1.08;;;;;;;24.04;42.63;98668.19;4994570;28;106162;-65
2021/11/02 13:56:10;;;;;;;1.23;0.98;;;;;;;22.81;42.34;98676.81;4998200;28;106159;-64
2021/11/02 14:27:21;;;;;;;1.48;1.10;;;;;;;13.21;52.03;98697.94;5008253;28;106120;-67
2021/11/02 14:29:57;;;;;;;2.58;1.38;;;;;;;12.89;52.67;98692.75;5004065;28;105878;-66
2021/11/02 14:32:35;;;;;;;5.00;1.40;;;;;;;12.52;53.76;98698.88;5004665;28;106291;-67
2021/11/02 14:35:01;;;;;;;1.50;1.10;;;;;;;12.31;54.44;98707.25;5004540;28;105898;-66
2021/11/02 14:37:27;;;;;;;6.38;2.20;;;;;;;12.17;54.35;98706.56;5004480;28;106384;-64
2021/11/02 14:40:05;;;;;;;3.75;1.30;;;;;;;12.15;54.88;98709.44;5005777;28;106024;-62
2021/11/02 14:42:44;;;;;;;2.28;1.17;;;;;;;11.87;54.69;98706.31;5003555;28;106283;-63
2021/11/02 14:45:11;;;;;;;33.47;21.23;;;;;;;11.61;55.57;98708.09;5002887;28;106123;-67
2021/11/02 14:47:38;;;;;;;4.25;1.70;;;;;;;11.42;55.64;98710.66;5000877;28;105908;-61
2021/11/02 14:50:36;;;;;;;2.30;1.40;;;;;;;11.27;56.14;98702.91;5005227;28;105853;-63
2021/11/02 14:53:34;;;;;;;2.92;1.55;;;;;;;11.08;56.68;98704.63;5004290;28;106228;-65
2021/11/02 14:56:15;;;;;;;2.53;1.45;;;;;;;11.30;57.49;98715.84;5003697;28;105975;-69
2021/11/02 14:58:42;;;;;;;1.80;1.40;;;;;;;11.36;56.87;98711.50;5004307;28;106230;-69
2021/11/02 15:01:26;;;;;;;5.47;3.15;;;;;;;11.10;57.04;98710.56;5006114;28;106000;-67
2021/11/02 15:04:18;;;;;;;4.90;1.98;;;;;;;10.92;57.30;98710.41;5004577;28;106339;-65
2021/11/02 15:06:53;;;;;;;4.38;2.65;;;;;;;10.75;57.52;98705.53;4997086;28;106144;-65
2021/11/02 15:09:21;;;;;;;8.88;2.45;;;;;;;10.58;57.82;98714.97;5001989;28;106986;-64
2021/11/02 15:11:49;;;;;;;4.22;1.90;;;;;;;10.47;58.54;98716.41;5004059;28;106466;-70
2021/11/02 15:14:17;;;;;;;3.90;1.60;;;;;;;10.37;58.25;98716.81;5003143;28;106239;-70
2021/11/02 15:16:52;;;;;;;6.95;4.25;;;;;;;10.22;58.69;98719.66;5002954;28;106365;-66
2021/11/02 15:19:19;;;;;;;4.93;2.13;;;;;;;10.12;58.81;98727.22;5002800;28;106035;-71
2021/11/02 15:21:55;;;;;;;3.08;2.10;;;;;;;10.04;58.98;98730.09;5003506;28;106913;-65
2021/11/02 15:24:23;;;;;;;5.93;2.08;;;;;;;9.98;59.32;98731.72;5003209;28;106087;-65
2021/11/02 15:27:07;;;;;;;5.32;2.05;;;;;;;9.90;59.86;98738.03;5002076;28;106417;-68
2021/11/02 15:29:36;;;;;;;4.82;2.40;;;;;;;9.87;60.24;98745.59;5002748;28;106479;-64
2021/11/02 15:32:17;;;;;;;4.75;3.38;;;;;;;9.79;60.34;98739.44;5002903;28;106089;-64
2021/11/02 15:34:58;;;;;;;4.82;2.50;;;;;;;9.73;60.61;98744.75;5002955;28;106793;-64
2021/11/02 15:37:29;;;;;;;6.00;2.90;;;;;;;9.68;60.82;98750.66;4995549;28;105899;-62
2021/11/02 15:39:55;;;;;;;9.18;4.00;;;;;;;9.63;60.85;98761.09;4989639;28;106525;-64
2021/11/02 15:42:23;;;;;;;12.80;7.03;;;;;;;9.64;61.51;98758.22;4990218;28;106070;-62
2021/11/02 15:44:52;;;;;;;11.40;5.75;;;;;;;9.67;61.68;98762.31;4989318;28;106245;-62
2021/11/02 15:47:19;;;;;;;11.70;8.63;;;;;;;9.68;61.63;98765.78;4988647;28;106822;-67
2021/11/02 15:49:55;;;;;;;4.90;2.58;;;;;;;9.63;61.78;98766.41;4988824;28;106039;-63
2021/11/02 15:52:21;;;;;;;76.90;46.50;;;;;;;9.62;61.98;98762.09;4986685;28;106540;-67
2021/11/02 15:54:47;;;;;;;12.88;6.60;;;;;;;9.60;61.79;98756.97;4987424;28;107307;-67
2021/11/02 15:57:13;;;;;;;10.90;4.88;;;;;;;9.58;62.23;98752.88;4987649;28;106971;-64
2021/11/02 15:59:38;;;;;;;7.50;2.92;;;;;;;9.55;62.19;98755.94;4984246;28;109268;-69
2021/11/02 16:02:04;;;;;;;5.00;2.53;;;;;;;9.52;62.28;98759.00;4988638;28;106018;-66
2021/11/02 16:04:29;;;;;;;7.47;2.78;;;;;;;9.47;62.81;98768.38;4988740;28;105926;-66
2021/11/02 16:06:54;;;;;;;13.90;3.95;;;;;;;9.44;62.28;98763.44;4988587;28;107281;-67
2021/11/02 16:09:20;;;;;;;10.00;4.40;;;;;;;9.43;62.66;98759.16;4987817;28;106333;-70
2021/11/02 16:11:47;;;;;;;15.55;5.05;;;;;;;9.43;63.02;98761.00;4989558;28;106886;-67
2021/11/02 16:14:13;;;;;;;13.25;4.45;;;;;;;9.42;63.32;98765.50;4986120;28;106933;-70
2021/11/02 16:16:38;;;;;;;17.90;5.90;;;;;;;9.42;63.49;98764.69;4987907;28;106058;-69
2021/11/02 16:19:04;;;;;;;17.02;7.00;;;;;;;9.42;63.50;98773.47;4987892;28;106575;-65
2021/11/02 16:21:32;;;;;;;11.10;4.82;;;;;;;9.43;63.62;98772.47;4986186;28;106123;-69
2021/11/02 16:24:07;;;;;;;9.10;4.18;;;;;;;9.45;63.52;98780.22;4988829;28;106398;-66
2021/11/02 16:26:36;;;;;;;7.38;4.05;;;;;;;9.46;64.13;98777.38;4987776;28;106237;-62
2021/11/02 16:29:14;;;;;;;8.50;3.45;;;;;;;9.48;64.10;98775.31;4987992;28;106070;-64
2021/11/02 16:31:41;;;;;;;7.45;2.95;;;;;;;9.49;64.08;98787.59;4989387;28;105975;-71
2021/11/02 16:34:25;;;;;;;40.40;24.35;;;;;;;9.50;64.32;98788.44;4988557;28;106373;-63
2021/11/02 16:36:51;;;;;;;12.95;7.32;;;;;;;9.54;64.63;98788.84;4987865;28;106067;-63
2021/11/02 16:39:23;;;;;;;9.25;4.40;;;;;;;9.53;64.25;98787.19;4987783;28;106443;-63
2021/11/02 16:42:01;;;;;;;6.30;3.90;;;;;;;9.53;64.54;98784.53;4993942;28;106096;-63
2021/11/02 16:44:35;;;;;;;7.22;3.92;;;;;;;9.49;64.59;98782.28;4987186;28;106118;-63
2021/11/02 16:47:07;;;;;;;6.13;4.18;;;;;;;9.49;64.69;98786.78;4987888;28;106134;-68
2021/11/02 16:49:34;;;;;;;4.55;3.15;;;;;;;9.45;64.49;98778.38;4987339;28;106421;-62
2021/11/02 16:52:05;;;;;;;5.47;2.70;;;;;;;9.43;64.73;98783.09;4988621;28;106159;-63
2021/11/02 16:54:36;;;;;;;8.45;4.78;;;;;;;9.39;65.18;98787.16;4988001;28;106371;-65
2021/11/02 16:57:20;;;;;;;10.65;5.72;;;;;;;9.33;64.60;98782.63;4987350;28;106486;-62
2021/11/02 17:00:04;;;;;;;9.60;4.90;;;;;;;9.29;65.05;98790.19;4987184;28;106036;-61
2021/11/02 17:02:37;;;;;;;9.57;4.65;;;;;;;9.27;65.28;98788.75;4985921;28;107049;-62
2021/11/02 17:05:14;;;;;;;10.45;5.13;;;;;;;9.22;65.39;98789.31;4987432;28;107719;-62
2021/11/02 17:07:39;;;;;;;8.73;5.75;;;;;;;9.17;65.32;98783.75;4986165;28;106503;-63
2021/11/02 17:10:53;;;;;;;8.82;5.68;;;;;;;9.09;65.46;98776.78;4986583;28;106483;-68
2021/11/02 17:13:24;;;;;;;12.88;6.38;;;;;;;9.07;66.17;98770.81;4985371;28;106326;-69
2021/11/02 17:15:58;;;;;;;14.00;7.35;;;;;;;9.02;66.08;98769.78;4984783;28;106255;-68
2021/11/02 17:18:44;;;;;;;16.52;9.88;;;;;;;8.98;66.04;98772.03;4986388;28;105971;-71
2021/11/02 17:21:11;;;;;;;17.80;9.80;;;;;;;8.96;66.33;98771.38;4984446;28;106057;-70
2021/11/02 17:23:38;;;;;;;16.65;9.57;;;;;;;8.93;66.47;98777.91;4988546;28;106118;-63
2021/11/02 17:26:05;;;;;;;15.73;9.30;;;;;;;8.86;66.23;98778.84;4987193;28;106470;-68
2021/11/02 17:28:31;;;;;;;18.67;11.80;;;;;;;8.77;67.09;98779.00;4987252;28;106126;-68
2021/11/02 17:31:01;;;;;;;20.17;12.52;;;;;;;8.73;67.01;98785.72;4987143;28;106669;-63
2021/11/02 17:33:28;;;;;;;;;;;;;;;8.68;67.15;98790.81;4987567;28;106351;-63
2021/11/02 17:35:54;;;;;;;22.33;13.82;;;;;;;8.62;66.82;98796.88;4988049;28;106019;-65
2021/11/02 17:38:21;;;;;;;24.00;12.65;;;;;;;8.60;67.13;98798.91;4987179;28;106118;-63
2021/11/02 17:40:48;;;;;;;17.65;12.30;;;;;;;8.60;67.67;98801.56;4986698;28;106134;-63
2021/11/02 17:43:14;;;;;;;20.30;11.23;;;;;;;8.60;68.15;98801.56;4986776;28;106097;-62
2021/11/02 17:45:41;;;;;;;17.73;10.57;;;;;;;8.60;68.26;98802.38;4966172;28;106197;-61
2021/11/02 17:48:07;;;;;;;19.73;11.05;;;;;;;8.60;67.90;98807.69;4966584;28;105919;-60
2021/11/02 17:50:34;;;;;;;17.75;10.68;;;;;;;8.61;68.01;98811.97;4982154;28;107172;-66
2021/11/02 17:53:00;;;;;;;22.38;10.68;;;;;;;8.61;67.99;98821.75;4987023;28;106789;-64
2021/11/02 17:55:26;;;;;;;18.58;11.00;;;;;;;8.61;68.65;98822.59;4987305;28;106403;-65
2021/11/02 17:57:54;;;;;;;21.27;10.75;;;;;;;8.62;68.40;98834.03;4985988;28;106126;-62
2021/11/02 18:00:22;;;;;;;21.35;10.98;;;;;;;8.61;68.46;98827.06;4986323;28;106058;-67
2021/11/02 18:02:52;;;;;;;24.10;11.38;;;;;;;8.62;69.13;98828.72;4987360;28;106043;-69
2021/11/02 18:05:18;;;;;;;;;;;;;;;8.61;68.68;98827.91;4986983;28;105963;-67
2021/11/02 18:07:43;;;;;;;20.88;11.63;;;;;;;8.58;68.95;98833.59;4987019;28;106647;-64
2021/11/02 18:10:10;;;;;;;23.02;13.52;;;;;;;8.56;68.84;98837.47;4986082;28;106082;-67
2021/11/02 18:12:37;;;;;;;25.67;13.68;;;;;;;8.54;68.74;98831.50;4987299;28;106094;-62
2021/11/02 18:15:05;;;;;;;23.60;13.57;;;;;;;8.51;69.07;98831.88;4985886;28;106068;-69
2021/11/02 18:17:32;;;;;;;28.65;13.02;;;;;;;8.49;69.59;98834.75;4985953;28;106114;-66
2021/11/02 18:20:00;;;;;;;28.13;12.80;;;;;;;8.46;69.40;98835.09;4986201;28;105954;-65
2021/11/02 18:22:26;;;;;;;24.45;12.90;;;;;;;8.42;69.05;98834.66;4986485;28;106528;-68
2021/11/02 18:24:53;;;;;;;22.73;13.23;;;;;;;8.37;69.70;98836.22;4986649;28;106542;-67
2021/11/02 18:27:19;;;;;;;25.80;13.52;;;;;;;8.35;69.44;98836.41;4986071;28;106767;-67
2021/11/02 18:29:47;;;;;;;27.10;14.52;;;;;;;8.31;69.45;98832.50;4986227;28;106518;-68
2021/11/02 18:32:13;;;;;;;26.63;13.27;;;;;;;8.23;69.37;98837.91;4986782;28;106093;-67
2021/11/02 18:34:39;;;;;;;29.20;14.63;;;;;;;8.17;70.10;98836.00;4985813;28;106245;-64
2021/11/02 18:37:06;;;;;;;28.50;15.73;;;;;;;8.10;69.67;98831.44;4986271;28;106663;-67
2021/11/02 18:39:32;;;;;;;27.88;15.07;;;;;;;8.03;69.98;98833.22;4986510;28;106773;-65
2021/11/02 18:41:58;;;;;;;28.15;16.00;;;;;;;7.96;70.30;98832.31;4987856;28;105974;-65
2021/11/02 18:44:24;;;;;;;24.83;14.48;;;;;;;7.88;69.94;98827.94;4986717;28;106082;-64
2021/11/02 18:46:49;;;;;;;26.45;14.82;;;;;;;7.83;69.93;98826.84;4985777;28;106245;-70
2021/11/02 18:49:15;;;;;;;31.80;17.30;;;;;;;7.75;70.53;98828.63;4985952;28;106115;-70
2021/11/02 18:51:41;;;;;;;31.67;17.58;;;;;;;7.68;70.88;98833.03;4987048;28;106095;-72
2021/11/02 18:54:07;;;;;;;27.98;16.90;;;;;;;7.60;70.24;98830.47;4986607;28;106375;-72
2021/11/02 18:56:32;;;;;;;30.80;16.52;;;;;;;7.55;71.21;98830.19;4986169;28;106141;-69
2021/11/02 18:58:58;;;;;;;33.13;17.55;;;;;;;7.50;70.76;98840.53;4986007;28;106572;-71
2021/11/02 19:01:24;;;;;;;31.95;17.38;;;;;;;7.44;70.95;98842.88;4987001;28;106053;-69
2021/11/02 19:03:53;;;;;;;38.97;21.50;;;;;;;7.42;71.27;98844.06;4986240;28;106150;-72
2021/11/02 19:06:26;;;;;;;32.63;18.40;;;;;;;7.45;71.91;98844.53;4985482;28;106479;-71
2021/11/02 19:08:53;;;;;;;28.85;15.38;;;;;;;7.46;71.95;98834.75;4984975;28;106015;-64
2021/11/02 19:11:18;;;;;;;28.92;16.63;;;;;;;7.45;71.61;98846.38;4983393;28;106006;-62
2021/11/02 19:13:43;;;;;;;31.45;17.63;;;;;;;7.43;71.47;98843.88;4987858;28;106152;-66
2021/11/02 19:16:11;;;;;;;33.22;18.95;;;;;;;7.40;71.75;98838.97;4984677;28;107620;-65
2021/11/02 19:18:38;;;;;;;34.35;18.83;;;;;;;7.36;71.58;98836.88;4988789;28;106306;-66
2021/11/02 19:21:04;;;;;;;34.20;19.85;;;;;;;7.34;71.56;98844.16;4990284;28;105883;-63
2021/11/02 19:23:32;;;;;;;37.40;20.13;;;;;;;7.28;72.17;98841.25;4990308;28;105675;-66
2021/11/02 19:25:57;;;;;;;36.28;19.38;;;;;;;7.24;72.21;98842.59;4988716;28;106189;-63
2021/11/02 19:28:23;;;;;;;34.38;19.38;;;;;;;7.24;72.10;98850.53;4990215;28;105794;-63
2021/11/02 19:30:48;;;;;;;36.28;19.88;;;;;;;7.22;72.07;98849.91;4990660;28;106268;-62
2021/11/02 19:33:16;;;;;;;32.38;19.60;;;;;;;7.22;72.19;98859.72;4990562;28;106311;-64
2021/11/02 19:35:42;;;;;;;35.00;19.05;;;;;;;7.18;72.21;98847.81;4990508;28;105879;-67
2021/11/02 19:38:08;;;;;;;33.50;19.13;;;;;;;7.17;72.55;98852.28;4990353;28;106012;-67
2021/11/02 19:40:34;;;;;;;34.58;19.55;;;;;;;7.13;72.20;98848.34;4991096;28;106070;-63
2021/11/02 19:42:59;;;;;;;34.58;19.42;;;;;;;7.09;72.63;98845.25;4989204;28;106091;-68
2021/11/02 19:45:25;;;;;;;36.80;20.45;;;;;;;7.08;72.34;98853.34;4991412;28;106050;-71
2021/11/02 19:47:52;;;;;;;35.15;19.45;;;;;;;7.04;72.90;98847.63;5004957;28;105831;-70
2021/11/02 19:50:20;;;;;;;34.45;19.40;;;;;;;7.02;73.18;98844.31;4994470;28;106164;-70
2021/11/02 19:52:49;;;;;;;34.40;19.08;;;;;;;7.02;72.60;98846.16;5004251;28;106222;-71
2021/11/02 19:55:17;;;;;;;33.50;18.83;;;;;;;7.02;72.95;98844.31;4998833;28;106730;-63
2021/11/02 19:57:44;;;;;;;31.52;17.45;;;;;;;7.00;73.25;98851.63;4990371;28;105986;-67
2021/11/02 20:00:12;;;;;;;32.00;18.30;;;;;;;7.00;72.88;98843.69;4992562;28;106020;-68
2021/11/02 20:02:38;;;;;;;31.60;17.90;;;;;;;7.03;73.50;98850.44;4988152;28;106156;-69
2021/11/02 20:05:06;;;;;;;30.55;18.67;;;;;;;7.05;73.15;98859.88;4994140;28;106928;-67
2021/11/02 20:07:40;;;;;;;37.35;19.58;;;;;;;7.06;73.85;98864.13;4993001;28;106075;-69
2021/11/02 20:10:08;;;;;;;35.63;19.42;;;;;;;7.03;73.05;98864.50;4988462;28;106038;-69
2021/11/02 20:12:41;;;;;;;34.67;19.13;;;;;;;7.02;73.26;98865.50;4999742;28;105947;-66
2021/11/02 20:15:07;;;;;;;29.42;17.70;;;;;;;6.99;73.15;98881.75;4995799;28;105972;-71
2021/11/02 20:17:34;;;;;;;32.15;17.02;;;;;;;6.94;72.96;98874.34;4991632;28;106094;-68
2021/11/02 20:20:01;;;;;;;29.63;17.98;;;;;;;6.89;73.53;98871.41;4989744;28;106079;-64
2021/11/02 20:22:27;;;;;;;29.67;17.33;;;;;;;6.84;73.61;98879.06;4989907;28;106149;-67
2021/11/02 20:24:53;;;;;;;27.13;16.73;;;;;;;6.77;73.59;98881.59;4988835;28;106836;-68
2021/11/02 20:27:22;;;;;;;34.45;16.92;;;;;;;6.75;73.55;98885.41;4989843;28;106277;-69
2021/11/02 20:29:48;;;;;;;31.70;16.40;;;;;;;6.72;73.55;98885.78;4989974;28;105934;-63
2021/11/02 20:32:15;;;;;;;42.53;21.27;;;;;;;6.68;73.79;98885.31;4989672;28;105891;-62
2021/11/02 20:34:40;;;;;;;33.35;18.15;;;;;;;6.64;74.06;98889.31;4988873;28;106569;-62
2021/11/02 20:37:13;;;;;;;32.78;18.40;;;;;;;6.60;73.59;98888.00;4987880;28;106044;-63
2021/11/02 20:39:47;;;;;;;32.17;16.73;;;;;;;6.55;74.01;98893.03;4988820;28;106054;-61
2021/11/02 20:42:16;;;;;;;29.15;17.05;;;;;;;6.53;74.22;98895.00;4987144;28;106202;-63
2021/11/02 20:44:51;;;;;;;29.77;15.98;;;;;;;6.50;74.50;98898.03;4988500;28;106814;-65
2021/11/02 20:47:18;;;;;;;31.67;16.75;;;;;;;6.47;74.20;98899.19;4988699;28;106118;-63
2021/11/02 20:49:51;;;;;;;31.40;16.35;;;;;;;6.42;74.18;98899.72;4989559;28;106859;-62
2021/11/02 20:52:17;;;;;;;29.52;15.85;;;;;;;6.33;74.31;98895.47;4987025;28;106062;-63